createdAt,value
2018-10-18T00:07:23.076Z,0.00
2018-10-18T00:08:22.084Z,0.00
2018-10-18T00:09:21.824Z,0.00
2018-10-18T00:10:21.763Z,0.00
2018-10-18T00:11:21.896Z,0.00
2018-10-18T00:12:22.362Z,0.00
2018-10-18T00:13:21.625Z,0.00
2018-10-18T00:14:22.439Z,0.00
2018-10-18T00:15:24.317Z,0.00
2018-10-18T00:16:23.434Z,0.00
2018-10-18T00:18:38.849Z,0.00
2018-10-18T00:23:48.334Z,0.00
2018-10-18T00:25:08.240Z,0.00
2018-10-18T00:54:21.992Z,0.00
2018-10-18T00:58:48.059Z,0.00
2018-10-18T00:59:47.662Z,0.00
2018-10-18T01:00:46.978Z,0.00
2018-10-18T01:01:51.440Z,0.00
2018-10-18T01:02:47.824Z,0.00
2018-10-18T01:03:46.898Z,0.00
2018-10-18T01:04:46.804Z,0.00
2018-10-18T01:05:46.841Z,0.00
2018-10-18T01:21:39.242Z,0.00
2018-10-18T01:22:40.400Z,0.00
2018-10-18T01:32:06.735Z,0.00
2018-10-18T01:33:01.663Z,0.00
2018-10-18T01:38:23.961Z,0.00
2018-10-18T01:39:23.642Z,0.00
2018-10-18T01:40:23.519Z,0.00
2018-10-18T01:41:23.525Z,0.00
2018-10-18T01:45:03.222Z,0.00
2018-10-18T01:54:53.658Z,0.00
2018-10-18T01:55:57.520Z,0.00
2018-10-18T01:58:06.229Z,0.00
2018-10-18T01:59:07.004Z,0.00
2018-10-18T02:00:07.092Z,0.00
2018-10-18T02:01:10.459Z,0.00
2018-10-18T02:02:07.427Z,0.00
2018-10-18T02:03:05.919Z,0.00
2018-10-18T02:04:05.835Z,0.00
2018-10-18T02:05:05.837Z,0.00
2018-10-18T02:06:08.777Z,0.00
2018-10-18T02:07:06.006Z,0.00
2018-10-18T02:08:06.451Z,0.00
2018-10-18T02:13:14.673Z,0.00
2018-10-18T02:14:14.238Z,0.00
2018-10-18T02:17:04.769Z,0.00
2018-10-18T02:18:03.904Z,0.00
2018-10-18T02:19:04.622Z,0.00
2018-10-18T02:21:33.416Z,0.00
2018-10-18T02:22:30.913Z,0.00
2018-10-18T02:23:30.547Z,0.00
2018-10-18T02:24:30.563Z,0.00
2018-10-18T02:25:30.705Z,0.00
2018-10-18T02:26:30.438Z,0.00
2018-10-18T02:27:30.448Z,0.00
2018-10-18T02:28:30.501Z,0.00
2018-10-18T02:29:30.555Z,0.00
2018-10-18T02:30:35.508Z,0.00
2018-10-18T02:31:30.381Z,0.00
2018-10-18T02:32:30.431Z,0.00
2018-10-18T02:33:30.417Z,0.00
2018-10-18T02:34:30.376Z,0.00
2018-10-18T02:35:31.293Z,0.00
2018-10-18T02:36:30.343Z,0.00
2018-10-18T02:37:30.441Z,0.00
2018-10-18T02:38:30.406Z,0.00
2018-10-18T02:39:30.273Z,0.00
2018-10-18T02:40:30.883Z,0.00
2018-10-18T02:41:30.402Z,0.00
2018-10-18T02:42:30.814Z,0.00
2018-10-18T02:43:30.271Z,0.00
2018-10-18T02:44:30.429Z,0.00
2018-10-18T02:45:30.320Z,0.00
2018-10-18T02:46:32.724Z,0.00
2018-10-18T02:47:30.330Z,0.00
2018-10-18T02:48:30.232Z,0.00
2018-10-18T02:49:30.227Z,0.00
2018-10-18T02:50:30.233Z,0.00
2018-10-18T02:51:30.134Z,0.00
2018-10-18T02:52:30.252Z,0.00
2018-10-18T02:55:45.441Z,0.00
2018-10-18T02:56:46.487Z,0.00
2018-10-18T02:57:45.084Z,0.00
2018-10-18T02:58:45.050Z,0.00
2018-10-18T02:59:44.837Z,0.00
2018-10-18T03:00:45.751Z,0.00
2018-10-18T03:01:44.939Z,0.00
2018-10-18T03:02:44.873Z,0.00
2018-10-18T03:03:45.105Z,0.00
2018-10-18T03:04:45.639Z,0.00
2018-10-18T03:05:44.831Z,0.00
2018-10-18T03:06:44.917Z,0.00
2018-10-18T03:07:44.989Z,0.00
2018-10-18T03:08:44.904Z,0.00
2018-10-18T03:09:44.921Z,0.00
2018-10-18T03:10:44.862Z,0.00
2018-10-18T03:11:45.289Z,0.00
2018-10-18T03:12:44.951Z,0.00
2018-10-18T03:16:17.575Z,0.00
2018-10-18T03:18:44.753Z,0.00
2018-10-18T03:19:43.882Z,0.00
2018-10-18T03:20:43.756Z,0.00
2018-10-18T03:21:43.715Z,0.00
2018-10-18T03:22:43.682Z,0.00
2018-10-18T03:23:43.698Z,0.00
2018-10-18T03:24:43.739Z,0.00
2018-10-18T03:25:44.488Z,0.00
2018-10-18T03:26:43.560Z,0.00
2018-10-18T03:27:43.676Z,0.00
2018-10-18T03:28:43.628Z,0.00
2018-10-18T03:29:43.733Z,0.00
2018-10-18T03:30:43.655Z,0.00
2018-10-18T03:31:43.586Z,0.00
2018-10-18T03:32:43.646Z,0.00
2018-10-18T03:33:43.556Z,0.00
2018-10-18T03:34:43.634Z,0.00
2018-10-18T03:35:43.497Z,0.00
2018-10-18T03:36:43.518Z,0.00
2018-10-18T03:37:43.532Z,0.00
2018-10-18T03:38:43.444Z,0.00
2018-10-18T03:39:43.452Z,0.00
2018-10-18T03:40:43.467Z,0.00
2018-10-18T03:41:43.542Z,0.00
2018-10-18T03:42:43.467Z,0.00
2018-10-18T03:43:43.518Z,0.00
2018-10-18T03:44:43.458Z,0.00
2018-10-18T03:45:43.541Z,0.00
2018-10-18T03:48:05.791Z,0.00
2018-10-18T03:49:05.664Z,0.00
2018-10-18T03:50:05.118Z,0.00
2018-10-18T03:51:04.992Z,0.00
2018-10-18T03:52:05.151Z,0.00
2018-10-18T03:53:05.820Z,0.00
2018-10-18T03:54:05.217Z,0.00
2018-10-18T03:55:04.951Z,0.00
2018-10-18T03:56:04.901Z,0.00
2018-10-18T03:57:04.900Z,0.00
2018-10-18T03:58:04.976Z,0.00
2018-10-18T03:59:04.945Z,0.00
2018-10-18T04:00:04.922Z,0.00
2018-10-18T04:01:04.831Z,0.00
2018-10-18T04:02:04.857Z,0.00
2018-10-18T04:03:04.805Z,0.00
2018-10-18T04:04:04.780Z,0.00
2018-10-18T04:05:04.819Z,0.00
2018-10-18T04:06:04.903Z,0.00
2018-10-18T04:07:04.818Z,0.00
2018-10-18T04:08:04.830Z,0.00
2018-10-18T04:09:04.986Z,0.00
2018-10-18T04:10:04.965Z,0.00
2018-10-18T04:11:04.727Z,0.00
2018-10-18T04:12:05.362Z,0.00
2018-10-18T04:13:04.721Z,0.00
2018-10-18T04:14:04.723Z,0.00
2018-10-18T04:15:04.712Z,0.00
2018-10-18T04:16:04.971Z,0.00
2018-10-18T04:17:04.724Z,0.00
2018-10-18T04:18:04.729Z,0.00
2018-10-18T04:19:04.845Z,0.00
2018-10-18T04:20:04.697Z,0.00
2018-10-18T04:21:04.830Z,0.00
2018-10-18T04:22:04.665Z,0.00
2018-10-18T04:23:04.667Z,0.00
2018-10-18T04:24:04.662Z,0.00
2018-10-18T04:25:04.638Z,0.00
2018-10-18T04:26:05.421Z,0.00
2018-10-18T04:27:04.561Z,0.00
2018-10-18T04:28:04.560Z,0.00
2018-10-18T04:29:04.520Z,0.00
2018-10-18T04:30:04.603Z,0.00
2018-10-18T04:31:04.551Z,0.00
2018-10-18T04:32:04.529Z,0.00
2018-10-18T04:33:04.553Z,0.00
2018-10-18T04:34:04.506Z,0.00
2018-10-18T04:35:04.494Z,0.00
2018-10-18T04:36:04.558Z,0.00
2018-10-18T04:37:04.526Z,0.00
2018-10-18T04:38:04.426Z,0.00
2018-10-18T04:39:04.507Z,0.00
2018-10-18T04:40:04.522Z,0.00
2018-10-18T04:41:04.613Z,0.00
2018-10-18T04:42:04.646Z,0.00
2018-10-18T04:43:04.417Z,0.00
2018-10-18T04:44:04.515Z,0.00
2018-10-18T04:45:04.379Z,0.00
2018-10-18T04:46:04.408Z,0.00
2018-10-18T04:47:04.358Z,0.00
2018-10-18T04:48:04.479Z,0.00
2018-10-18T04:49:04.346Z,0.00
2018-10-18T04:50:04.275Z,0.00
2018-10-18T04:51:04.293Z,0.00
2018-10-18T04:52:04.339Z,0.00
2018-10-18T04:53:04.393Z,0.00
2018-10-18T04:54:04.378Z,0.00
2018-10-18T04:55:04.375Z,0.00
2018-10-18T04:56:04.316Z,0.00
2018-10-18T04:57:04.186Z,0.00
2018-10-18T04:58:04.194Z,0.00
2018-10-18T04:59:04.286Z,0.00
2018-10-18T05:00:04.248Z,0.00
2018-10-18T05:01:04.263Z,0.00
2018-10-18T05:02:04.166Z,0.00
2018-10-18T05:03:04.206Z,0.00
2018-10-18T05:04:04.145Z,0.00
2018-10-18T05:05:04.137Z,0.00
2018-10-18T05:06:04.099Z,0.00
2018-10-18T05:07:04.192Z,0.00
2018-10-18T05:08:04.090Z,0.00
2018-10-18T05:09:04.132Z,0.00
2018-10-18T05:10:04.157Z,0.00
2018-10-18T05:11:04.110Z,0.00
2018-10-18T05:12:04.099Z,0.00
2018-10-18T05:13:04.052Z,0.00
2018-10-18T05:14:04.006Z,0.00
2018-10-18T05:15:04.094Z,0.00
2018-10-18T05:16:04.041Z,0.00
2018-10-18T05:17:04.012Z,0.00
2018-10-18T05:18:04.024Z,0.00
2018-10-18T05:19:03.999Z,0.00
2018-10-18T05:20:04.048Z,0.00
2018-10-18T05:21:03.985Z,0.00
2018-10-18T05:22:03.909Z,0.00
2018-10-18T05:23:03.944Z,0.00
2018-10-18T05:24:03.904Z,4.00
2018-10-18T05:25:03.991Z,4.00
2018-10-18T05:26:03.902Z,0.00
2018-10-18T05:27:03.911Z,4.00
2018-10-18T05:28:03.928Z,4.00
2018-10-18T05:29:03.850Z,4.00
2018-10-18T05:30:03.826Z,4.00
2018-10-18T05:31:03.849Z,4.00
2018-10-18T05:32:03.799Z,8.00
2018-10-18T05:33:03.807Z,8.00
2018-10-18T05:34:03.799Z,12.00
2018-10-18T05:35:03.805Z,12.00
2018-10-18T05:36:03.762Z,16.00
2018-10-18T05:37:03.823Z,16.00
2018-10-18T05:38:03.797Z,24.00
2018-10-18T05:39:03.761Z,24.00
2018-10-18T05:40:03.719Z,24.00
2018-10-18T05:41:03.710Z,28.00
2018-10-18T05:42:03.719Z,40.00
2018-10-18T05:43:03.750Z,48.00
2018-10-18T05:44:03.714Z,60.00
2018-10-18T05:45:03.717Z,68.00
2018-10-18T05:46:03.726Z,76.00
2018-10-18T05:47:03.659Z,84.00
2018-10-18T05:48:03.708Z,88.00
2018-10-18T05:49:03.684Z,88.00
2018-10-18T05:50:03.641Z,104.00
2018-10-18T05:51:03.649Z,132.00
2018-10-18T05:52:03.625Z,156.00
2018-10-18T05:53:03.660Z,168.00
2018-10-18T05:54:03.706Z,176.00
2018-10-18T05:55:03.632Z,176.00
2018-10-18T05:56:03.579Z,172.00
2018-10-18T05:57:03.545Z,184.00
2018-10-18T05:58:03.594Z,220.00
2018-10-18T05:59:03.556Z,268.00
2018-10-18T06:00:03.532Z,324.00
2018-10-18T06:01:03.525Z,364.00
2018-10-18T06:02:03.547Z,400.00
2018-10-18T06:03:03.473Z,444.00
2018-10-18T06:04:03.483Z,496.00
2018-10-18T06:05:03.511Z,564.00
2018-10-18T06:06:03.455Z,632.00
2018-10-18T06:07:03.521Z,696.00
2018-10-18T06:08:03.406Z,756.00
2018-10-18T06:09:03.521Z,808.00
2018-10-18T06:10:03.507Z,856.00
2018-10-18T06:11:03.392Z,912.00
2018-10-18T06:12:03.423Z,972.00
2018-10-18T06:13:03.436Z,1036.00
2018-10-18T06:14:03.426Z,1100.00
2018-10-18T06:15:03.376Z,1184.00
2018-10-18T06:16:03.372Z,1260.00
2018-10-18T06:17:03.342Z,1324.00
2018-10-18T06:18:03.315Z,1380.00
2018-10-18T06:19:03.352Z,1436.00
2018-10-18T06:20:03.312Z,1484.00
2018-10-18T06:21:03.336Z,1536.00
2018-10-18T06:22:03.303Z,1604.00
2018-10-18T06:23:03.310Z,1700.00
2018-10-18T06:24:03.275Z,1784.00
2018-10-18T06:25:03.250Z,1832.00
2018-10-18T06:26:03.203Z,1852.00
2018-10-18T06:27:03.247Z,1872.00
2018-10-18T06:28:03.236Z,1892.00
2018-10-18T06:29:03.268Z,1952.00
2018-10-18T06:30:03.174Z,1996.00
2018-10-18T06:31:03.275Z,1976.00
2018-10-18T06:32:03.171Z,1932.00
2018-10-18T06:33:03.257Z,1916.00
2018-10-18T06:34:03.139Z,1912.00
2018-10-18T06:35:03.166Z,1948.00
2018-10-18T06:36:03.090Z,2004.00
2018-10-18T06:37:03.235Z,2080.00
2018-10-18T06:38:03.091Z,2140.00
2018-10-18T06:39:03.105Z,2128.00
2018-10-18T06:40:03.076Z,2180.00
2018-10-18T06:41:03.169Z,2384.00
2018-10-18T06:42:03.033Z,2368.00
2018-10-18T06:43:03.103Z,2116.00
2018-10-18T06:44:03.037Z,1992.00
2018-10-18T06:45:03.085Z,1940.00
2018-10-18T06:46:02.995Z,1916.00
2018-10-18T06:47:03.203Z,1928.00
2018-10-18T06:48:03.864Z,2000.00
2018-10-18T06:49:03.112Z,2124.00
2018-10-18T06:50:02.977Z,2228.00
2018-10-18T06:51:02.980Z,2348.00
2018-10-18T06:52:02.963Z,2500.00
2018-10-18T06:53:02.920Z,2640.00
2018-10-18T06:54:03.094Z,2860.00
2018-10-18T07:00:38.484Z,5028.00
2018-10-18T08:08:40.248Z,9420.00
2018-10-18T08:09:39.786Z,11064.00
2018-10-18T08:10:39.771Z,11872.00
2018-10-18T08:11:39.884Z,12604.00
2018-10-18T08:12:39.807Z,12752.00
2018-10-18T08:13:39.515Z,11576.00
2018-10-18T08:14:39.539Z,10952.00
2018-10-18T08:15:39.498Z,10104.00
2018-10-18T08:16:39.499Z,10040.00
2018-10-18T08:17:39.476Z,10168.00
2018-10-18T08:18:39.742Z,9688.00
2018-10-18T08:19:49.588Z,9812.00
2018-10-18T08:20:39.572Z,10752.00
2018-10-18T08:21:39.500Z,11460.00
2018-10-18T08:22:39.702Z,12212.00
2018-10-18T08:23:39.547Z,12972.00
2018-10-18T08:24:39.445Z,13544.00
2018-10-18T08:25:39.430Z,13608.00
2018-10-18T08:26:39.440Z,13424.00
2018-10-18T08:27:39.372Z,13744.00
2018-10-18T08:28:39.331Z,14468.00
2018-10-18T08:29:39.333Z,15492.00
2018-10-18T08:30:39.308Z,16376.00
2018-10-18T08:31:39.470Z,16116.00
2018-10-18T08:32:39.310Z,15880.00
2018-10-18T08:33:39.529Z,14944.00
2018-10-18T08:34:39.299Z,14792.00
2018-10-18T08:35:39.261Z,14800.00
2018-10-18T08:36:39.273Z,17952.00
2018-10-18T08:37:39.393Z,20512.00
2018-10-18T08:38:39.246Z,15336.00
2018-10-18T08:39:39.208Z,16108.00
2018-10-18T08:40:39.216Z,17536.00
2018-10-18T08:41:39.186Z,17184.00
2018-10-18T08:42:39.173Z,15280.00
2018-10-18T08:43:39.167Z,14828.00
2018-10-18T08:44:39.241Z,13344.00
2018-10-18T08:45:39.208Z,13100.00
2018-10-18T08:46:39.172Z,14256.00
2018-10-18T08:47:39.137Z,16360.00
2018-10-18T08:48:39.184Z,18304.00
2018-10-18T08:49:39.112Z,18400.00
2018-10-18T08:50:39.148Z,19456.00
2018-10-18T08:51:39.078Z,19616.00
2018-10-18T08:52:39.064Z,19488.00
2018-10-18T08:53:39.083Z,19744.00
2018-10-18T08:54:39.044Z,21472.00
2018-10-18T08:55:39.076Z,28160.00
2018-10-18T08:56:39.062Z,21920.00
2018-10-18T08:57:39.006Z,17824.00
2018-10-18T08:58:39.093Z,19424.00
2018-10-18T08:59:39.083Z,23072.00
2018-10-18T09:00:39.047Z,24640.00
2018-10-18T09:01:39.046Z,24192.00
2018-10-18T09:02:38.995Z,23200.00
2018-10-18T09:03:39.060Z,23968.00
2018-10-18T09:07:42.305Z,24864.00
2018-10-18T09:10:20.061Z,18304.00
2018-10-18T09:11:19.995Z,15944.00
2018-10-18T09:12:20.188Z,14832.00
2018-10-18T09:13:20.061Z,13944.00
2018-10-18T09:14:19.877Z,13092.00
2018-10-18T09:15:19.771Z,12316.00
2018-10-18T09:16:19.943Z,13216.00
2018-10-18T09:17:19.806Z,13576.00
2018-10-18T09:18:19.835Z,13972.00
2018-10-18T09:19:19.759Z,15052.00
2018-10-18T09:20:19.734Z,16120.00
2018-10-18T09:21:19.768Z,17280.00
2018-10-18T09:22:19.738Z,18048.00
2018-10-18T09:23:19.710Z,18464.00
2018-10-18T09:24:19.829Z,17984.00
2018-10-18T09:25:19.720Z,18592.00
2018-10-18T09:26:19.664Z,19520.00
2018-10-18T09:27:19.715Z,19264.00
2018-10-18T09:28:19.654Z,18624.00
2018-10-18T09:29:26.293Z,19904.00
2018-10-18T09:30:19.912Z,21152.00
2018-10-18T09:31:19.683Z,22112.00
2018-10-18T09:32:19.589Z,22752.00
2018-10-18T09:33:20.358Z,22528.00
2018-10-18T09:34:19.655Z,22080.00
2018-10-18T09:35:19.577Z,21728.00
2018-10-18T09:36:19.622Z,21824.00
2018-10-18T09:37:19.541Z,20256.00
2018-10-18T09:38:19.607Z,17464.00
2018-10-18T09:39:19.587Z,16600.00
2018-10-18T09:40:19.508Z,16632.00
2018-10-18T09:41:19.595Z,16900.00
2018-10-18T09:51:38.479Z,17744.00
2018-10-18T09:52:38.432Z,17032.00
2018-10-18T09:53:38.270Z,17692.00
2018-10-18T09:54:38.437Z,18848.00
2018-10-18T09:55:38.280Z,20224.00
2018-10-18T09:56:38.291Z,20256.00
2018-10-18T09:57:38.157Z,20352.00
2018-10-18T09:58:38.186Z,19584.00
2018-10-18T09:59:38.190Z,21376.00
2018-10-18T10:00:38.105Z,22528.00
2018-10-18T10:01:38.153Z,21408.00
2018-10-18T10:02:38.143Z,20768.00
2018-10-18T10:03:38.119Z,22304.00
2018-10-18T10:04:38.064Z,23200.00
2018-10-18T10:05:38.070Z,23200.00
2018-10-18T10:06:38.079Z,23200.00
2018-10-18T10:07:38.049Z,23936.00
2018-10-18T10:08:38.025Z,24448.00
2018-10-18T10:09:38.053Z,24736.00
2018-10-18T10:10:37.990Z,25824.00
2018-10-18T10:11:38.048Z,27552.00
2018-10-18T10:12:37.986Z,28800.00
2018-10-18T10:13:38.009Z,28608.00
2018-10-18T10:14:48.216Z,26656.00
2018-10-18T10:15:38.143Z,25344.00
2018-10-18T10:16:38.370Z,23872.00
2018-10-18T10:17:38.348Z,21248.00
2018-10-18T10:18:38.087Z,17408.00
2018-10-18T10:19:38.089Z,15368.00
2018-10-18T10:20:37.904Z,16292.00
2018-10-18T10:21:37.930Z,21216.00
2018-10-18T10:22:37.874Z,27072.00
2018-10-18T10:23:37.861Z,28960.00
2018-10-18T10:24:37.931Z,26752.00
2018-10-18T10:25:37.955Z,25472.00
2018-10-18T10:26:37.900Z,24320.00
2018-10-18T10:27:37.809Z,22752.00
2018-10-18T10:28:37.811Z,21760.00
2018-10-18T10:29:37.791Z,20864.00
2018-10-18T10:30:37.784Z,18208.00
2018-10-18T10:31:37.842Z,15340.00
2018-10-18T10:32:37.746Z,13608.00
2018-10-18T10:33:37.830Z,12248.00
2018-10-18T10:34:37.763Z,10840.00
2018-10-18T10:35:37.797Z,9448.00
2018-10-18T10:36:37.731Z,9112.00
2018-10-18T10:37:39.362Z,9636.00
2018-10-18T10:38:37.765Z,10668.00
2018-10-18T10:39:37.700Z,11856.00
2018-10-18T10:40:37.704Z,13096.00
2018-10-18T10:41:37.686Z,14200.00
2018-10-18T10:42:37.668Z,16004.00
2018-10-18T10:43:37.910Z,17284.00
2018-10-18T10:44:37.772Z,17404.00
2018-10-18T10:45:37.652Z,19744.00
2018-10-18T10:46:37.646Z,23936.00
2018-10-18T10:47:37.694Z,24512.00
2018-10-18T10:48:37.699Z,21280.00
2018-10-18T10:49:37.689Z,16364.00
2018-10-18T10:53:12.836Z,13524.00
2018-10-18T10:54:12.049Z,13648.00
2018-10-18T10:55:11.692Z,12816.00
2018-10-18T10:56:11.493Z,12612.00
2018-10-18T10:57:11.320Z,13588.00
2018-10-18T10:58:11.275Z,14096.00
2018-10-18T10:59:11.303Z,14632.00
2018-10-18T11:00:11.311Z,15036.00
2018-10-18T11:01:11.238Z,15232.00
2018-10-18T11:02:11.349Z,16472.00
2018-10-18T11:03:11.256Z,18880.00
2018-10-18T11:04:11.180Z,21120.00
2018-10-18T11:05:11.231Z,23936.00
2018-10-18T11:06:11.271Z,26624.00
2018-10-18T11:07:11.139Z,27968.00
2018-10-18T11:08:13.239Z,28960.00
2018-10-18T11:09:11.299Z,29920.00
2018-10-18T11:10:11.152Z,30496.00
2018-10-18T11:11:11.106Z,30304.00
2018-10-18T11:12:11.183Z,28576.00
2018-10-18T11:13:11.089Z,26976.00
2018-10-18T11:14:11.160Z,22496.00
2018-10-18T11:15:11.168Z,20224.00
2018-10-18T11:16:11.064Z,21248.00
2018-10-18T11:17:11.819Z,21248.00
2018-10-18T11:30:57.563Z,24480.00
2018-10-18T11:31:57.594Z,27968.00
2018-10-18T11:36:48.806Z,27744.00
2018-10-18T11:39:55.098Z,20000.00
2018-10-18T11:43:30.433Z,15268.00
2018-10-18T11:44:28.857Z,16808.00
2018-10-18T11:45:29.603Z,18752.00
2018-10-18T11:46:28.528Z,19264.00
2018-10-18T11:47:28.597Z,18912.00
2018-10-18T11:51:16.247Z,25376.00
2018-10-18T11:52:15.993Z,26208.00
2018-10-18T11:53:15.745Z,24416.00
2018-10-18T11:54:15.569Z,22112.00
2018-10-18T11:55:16.058Z,21568.00
2018-10-18T11:56:15.782Z,22016.00
2018-10-18T11:57:15.598Z,23168.00
2018-10-18T11:58:15.708Z,24512.00
2018-10-18T11:59:15.594Z,24000.00
2018-10-18T12:00:15.475Z,23104.00
2018-10-18T12:01:15.491Z,19904.00
2018-10-18T12:04:30.833Z,16584.00
2018-10-18T12:05:30.144Z,18464.00
2018-10-18T12:06:29.943Z,19040.00
2018-10-18T12:07:29.921Z,19072.00
2018-10-18T12:08:29.917Z,20160.00
2018-10-18T12:09:29.901Z,21824.00
2018-10-18T12:10:29.864Z,22944.00
2018-10-18T12:11:29.902Z,23136.00
2018-10-18T12:12:29.823Z,23648.00
2018-10-18T12:13:29.818Z,25088.00
2018-10-18T12:14:33.081Z,26528.00
2018-10-18T12:15:29.817Z,27712.00
2018-10-18T12:16:29.777Z,27456.00
2018-10-18T12:17:29.920Z,25216.00
2018-10-18T12:18:29.749Z,24608.00
2018-10-18T12:19:34.489Z,23616.00
2018-10-18T12:21:57.520Z,20480.00
2018-10-18T12:22:57.757Z,20032.00
2018-10-18T12:23:57.258Z,20192.00
2018-10-18T12:24:57.219Z,19488.00
2018-10-18T12:25:57.281Z,18784.00
2018-10-18T12:26:57.363Z,18080.00
2018-10-18T12:27:57.217Z,17376.00
2018-10-18T12:28:57.364Z,17120.00
2018-10-18T12:35:25.987Z,13056.00
2018-10-18T12:41:45.935Z,13564.00
2018-10-18T12:50:11.460Z,15208.00
2018-10-18T12:51:22.166Z,15196.00
2018-10-18T12:58:20.558Z,12568.00
2018-10-18T12:59:20.873Z,11676.00
2018-10-18T13:00:20.345Z,10828.00
2018-10-18T13:03:35.782Z,10592.00
2018-10-18T13:05:46.949Z,11812.00
2018-10-18T13:09:56.816Z,13136.00
2018-10-18T13:10:55.697Z,12988.00
2018-10-18T13:11:56.325Z,12924.00
2018-10-18T13:12:55.485Z,12868.00
2018-10-18T13:15:15.760Z,13300.00
2018-10-18T13:18:23.552Z,13456.00
2018-10-18T13:19:22.821Z,12844.00
2018-10-18T13:20:22.834Z,12412.00
2018-10-18T13:21:23.200Z,12344.00
2018-10-18T13:22:22.713Z,12532.00
2018-10-18T13:23:22.736Z,13016.00
2018-10-18T13:24:22.815Z,13640.00
2018-10-18T13:25:22.679Z,14320.00
2018-10-18T13:26:22.593Z,14956.00
2018-10-18T13:27:22.602Z,15192.00
2018-10-18T13:28:22.596Z,15436.00
2018-10-18T13:29:22.551Z,15604.00
2018-10-18T13:30:22.563Z,15796.00
2018-10-18T13:31:23.445Z,16084.00
2018-10-18T13:32:22.517Z,16380.00
2018-10-18T13:33:22.510Z,16600.00
2018-10-18T13:34:22.500Z,16548.00
2018-10-18T13:35:30.686Z,16192.00
2018-10-18T13:36:22.817Z,15644.00
2018-10-18T13:37:22.604Z,15152.00
2018-10-18T13:38:22.725Z,14952.00
2018-10-18T13:39:22.613Z,14840.00
2018-10-18T13:40:22.610Z,14632.00
2018-10-18T13:41:22.674Z,14528.00
2018-10-18T13:42:22.419Z,14512.00
2018-10-18T13:43:22.932Z,14228.00
2018-10-18T13:44:22.819Z,13764.00
2018-10-18T13:45:22.537Z,13204.00
2018-10-18T13:46:22.598Z,12792.00
2018-10-18T13:47:22.368Z,12408.00
2018-10-18T13:48:22.391Z,12148.00
2018-10-18T13:49:23.647Z,12128.00
2018-10-18T13:50:22.325Z,12128.00
2018-10-18T13:51:22.335Z,12004.00
2018-10-18T13:52:22.291Z,11732.00
2018-10-18T13:53:22.280Z,11376.00
2018-10-18T13:54:22.355Z,11112.00
2018-10-18T13:55:22.368Z,10844.00
2018-10-18T13:56:22.276Z,10588.00
2018-10-18T13:57:22.304Z,10400.00
2018-10-18T13:58:22.290Z,10240.00
2018-10-18T13:59:22.392Z,10048.00
2018-10-18T14:00:22.355Z,9992.00
2018-10-18T14:01:22.192Z,10108.00
2018-10-18T14:02:22.181Z,10272.00
2018-10-18T14:03:22.321Z,10436.00
2018-10-18T14:04:22.193Z,10376.00
2018-10-18T14:05:22.187Z,10036.00
2018-10-18T14:06:22.215Z,9512.00
2018-10-18T14:07:22.151Z,8924.00
2018-10-18T14:08:22.159Z,8220.00
2018-10-18T14:09:22.256Z,7560.00
2018-10-18T14:10:22.309Z,7096.00
2018-10-18T14:11:22.085Z,7052.00
2018-10-18T14:12:23.725Z,7224.00
2018-10-18T14:13:22.174Z,7240.00
2018-10-18T14:14:38.820Z,7020.00
2018-10-18T14:15:22.385Z,6860.00
2018-10-18T14:16:22.173Z,6824.00
2018-10-18T14:17:22.266Z,6728.00
2018-10-18T14:18:22.223Z,6700.00
2018-10-18T14:19:22.144Z,6708.00
2018-10-18T14:20:22.099Z,6804.00
2018-10-18T14:21:21.983Z,6780.00
2018-10-18T14:22:22.061Z,6512.00
2018-10-18T14:23:22.011Z,6304.00
2018-10-18T14:24:21.997Z,6196.00
2018-10-18T14:25:21.929Z,6260.00
2018-10-18T14:26:22.041Z,6172.00
2018-10-18T14:27:21.912Z,6016.00
2018-10-18T14:28:21.894Z,5928.00
2018-10-18T14:29:21.912Z,5784.00
2018-10-18T14:30:21.908Z,5752.00
2018-10-18T14:31:21.872Z,6056.00
2018-10-18T14:32:21.886Z,6404.00
2018-10-18T14:33:21.891Z,6440.00
2018-10-18T14:34:21.864Z,6316.00
2018-10-18T14:36:39.058Z,5808.00
2018-10-18T14:37:38.604Z,5900.00
2018-10-18T14:38:38.641Z,5980.00
2018-10-18T14:39:38.561Z,5908.00
2018-10-18T14:40:38.372Z,5796.00
2018-10-18T14:41:38.350Z,5736.00
2018-10-18T14:42:38.342Z,5572.00
2018-10-18T14:43:38.435Z,5596.00
2018-10-18T14:44:38.469Z,5796.00
2018-10-18T14:45:38.355Z,6188.00
2018-10-18T14:46:38.292Z,6452.00
2018-10-18T14:47:38.827Z,6576.00
2018-10-18T14:48:38.303Z,6596.00
2018-10-18T14:49:38.241Z,6612.00
2018-10-18T14:50:49.434Z,6624.00
2018-10-18T14:51:38.410Z,6448.00
2018-10-18T14:52:39.075Z,6216.00
2018-10-18T14:53:38.288Z,5972.00
2018-10-18T14:54:38.277Z,5660.00
2018-10-18T14:55:40.117Z,5352.00
2018-10-18T14:56:38.170Z,5072.00
2018-10-18T14:57:38.246Z,4868.00
2018-10-18T14:58:38.210Z,4692.00
2018-10-18T14:59:38.174Z,4612.00
2018-10-18T15:00:38.195Z,4572.00
2018-10-18T15:01:38.140Z,4632.00
2018-10-18T15:02:38.111Z,4664.00
2018-10-18T15:03:38.107Z,4704.00
2018-10-18T15:04:38.166Z,4648.00
2018-10-18T15:05:38.146Z,4552.00
2018-10-18T15:06:38.053Z,4416.00
2018-10-18T15:07:38.038Z,4272.00
2018-10-18T15:08:38.047Z,4132.00
2018-10-18T15:09:38.129Z,3996.00
2018-10-18T15:10:38.091Z,3892.00
2018-10-18T15:11:38.090Z,3836.00
2018-10-18T15:12:38.040Z,3788.00
2018-10-18T15:13:37.993Z,3656.00
2018-10-18T15:14:38.024Z,3472.00
2018-10-18T15:15:37.978Z,3256.00
2018-10-18T15:16:37.986Z,2980.00
2018-10-18T15:17:37.997Z,2708.00
2018-10-18T15:18:37.976Z,2464.00
2018-10-18T15:19:37.938Z,2232.00
2018-10-18T15:20:37.922Z,2104.00
2018-10-18T15:21:37.887Z,2072.00
2018-10-18T15:22:37.917Z,2048.00
2018-10-18T15:23:37.868Z,2040.00
2018-10-18T15:24:37.841Z,2076.00
2018-10-18T15:25:38.016Z,2068.00
2018-10-18T15:26:38.059Z,1948.00
2018-10-18T15:27:37.980Z,1816.00
2018-10-18T15:28:37.796Z,1868.00
2018-10-18T15:29:37.833Z,1988.00
2018-10-18T15:30:37.811Z,2072.00
2018-10-18T15:31:37.768Z,2100.00
2018-10-18T15:32:37.904Z,2080.00
2018-10-18T15:33:37.745Z,2148.00
2018-10-18T15:34:37.816Z,2244.00
2018-10-18T15:35:37.751Z,2336.00
2018-10-18T15:36:37.788Z,2316.00
2018-10-18T15:37:37.757Z,2128.00
2018-10-18T15:38:37.834Z,1988.00
2018-10-18T15:39:37.787Z,1876.00
2018-10-18T15:40:37.664Z,1704.00
2018-10-18T15:41:37.697Z,1540.00
2018-10-18T15:42:37.757Z,1504.00
2018-10-18T15:43:37.665Z,1536.00
2018-10-18T15:44:37.682Z,1460.00
2018-10-18T15:45:37.656Z,1332.00
2018-10-18T15:46:37.635Z,1300.00
2018-10-18T15:47:37.655Z,1308.00
2018-10-18T15:48:37.585Z,1272.00
2018-10-18T15:49:37.559Z,1260.00
2018-10-18T15:50:37.564Z,1276.00
2018-10-18T15:51:37.568Z,1192.00
2018-10-18T15:52:37.621Z,1064.00
2018-10-18T15:53:37.640Z,960.00
2018-10-18T15:54:37.593Z,800.00
2018-10-18T15:55:37.624Z,632.00
2018-10-18T15:57:56.455Z,784.00
2018-10-18T16:00:54.797Z,792.00
2018-10-18T16:02:04.149Z,820.00
2018-10-18T16:02:54.173Z,804.00
2018-10-18T16:03:54.070Z,788.00
2018-10-18T16:04:55.230Z,760.00
2018-10-18T16:05:53.978Z,768.00
2018-10-18T16:06:53.994Z,780.00
2018-10-18T16:09:14.267Z,668.00
2018-10-18T16:10:14.687Z,600.00
2018-10-18T16:11:14.508Z,520.00
2018-10-18T16:12:14.212Z,468.00
2018-10-18T16:13:14.031Z,416.00
2018-10-18T16:14:14.147Z,444.00
2018-10-18T16:15:14.095Z,472.00
2018-10-18T16:16:14.099Z,472.00
2018-10-18T16:17:14.082Z,480.00
2018-10-18T16:18:13.961Z,488.00
2018-10-18T16:19:26.805Z,476.00
2018-10-18T16:20:14.735Z,440.00
2018-10-18T16:21:42.150Z,384.00
2018-10-18T16:22:14.105Z,336.00
2018-10-18T16:23:16.215Z,332.00
2018-10-18T16:24:14.097Z,324.00
2018-10-18T16:25:13.964Z,304.00
2018-10-18T16:26:14.068Z,276.00
2018-10-18T16:27:23.045Z,256.00
2018-10-18T16:28:15.756Z,236.00
2018-10-18T16:31:36.613Z,172.00
2018-10-18T16:32:36.408Z,156.00
2018-10-18T16:33:35.985Z,144.00
2018-10-18T16:34:35.795Z,124.00
2018-10-18T16:35:35.828Z,112.00
2018-10-18T16:36:35.821Z,100.00
2018-10-18T16:37:35.801Z,84.00
2018-10-18T16:38:35.788Z,76.00
2018-10-18T16:40:53.110Z,52.00
2018-10-18T16:41:52.721Z,44.00